Flight Track Log - Related Links

Times and Time Zones

All times are in EDT time to prevent confusion due to time zone crossing. See the SWA796 flight status page for this flight to view local times or setup timezone preferences in your user account.

Time Position Orientation Groundspeed Altitude Reporting Facility
EDT Latitude Longitude Course Direction KTS MPH feet Rate Location/Type
10:35AM 39.1667 -76.6333 92° East 158 182 1,800  Level Potomac TRACON
10:37AM 39.1625 -76.4428 92° East 234 269 7,300 2,829 Climbing Washington Center
10:38AM 39.1550 -76.3383 95° East 268 308 10,900 2,874 Climbing Washington Center
10:39AM 39.1514 -76.2339 93° East 293 337 13,000 2,746 Climbing Washington Center
10:40AM 39.1667 -76.1028 81° East 338 389 16,300 3,000 Climbing Washington Center
10:41AM 39.1817 -75.9664 82° East 364 419 19,100 2,607 Climbing Washington Center
10:42AM 39.2653 -75.8731 41° Northeast 372 428 21,600 2,542 Climbing Washington Center
10:43AM 39.3842 -75.8519 North 359 413 24,100 2,319 Climbing Washington Center
10:44AM 39.4906 -75.7744 29° Northeast 386 444 26,200 2,115 Climbing Washington Center
10:45AM 39.5906 -75.6778 37° Northeast 425 489 28,400 2,390 Climbing Washington Center
10:46AM 39.6656 -75.5539 52° Northeast 436 502 30,900 2,085 Climbing Washington Center
10:47AM 39.7322 -75.4242 56° Northeast 430 495 32,500 1,223 Climbing Washington Center
10:48AM 39.7881 -75.3203 55° Northeast 433 498 33,000 294 Climbing New York Center
10:49AM 39.8578 -75.1869 56° Northeast 433 498 33,000  Level New York Center
10:50AM 39.9236 -75.0450 59° Northeast 443 510 33,000  Level New York Center
10:51AM 39.9903 -74.9244 54° Northeast 449 517 33,000  Level New York Center
10:52AM 40.0539 -74.7736 61° Northeast 443 510 33,000  Level New York Center
10:53AM 40.1067 -74.6272 65° Northeast 435 501 33,000  Level New York Center
10:54AM 40.1503 -74.5103 64° Northeast 435 501 33,000  Level New York Center
10:55AM 40.2094 -74.3478 64° Northeast 440 506 33,000  Level New York Center
10:56AM 40.2617 -74.2008 65° Northeast 440 506 33,000 -943 Level New York Center
10:57AM 40.3489 -73.9625 64° Northeast 432 497 30,500 -1,630 Descending Boston Center
10:58AM 40.3936 -73.8311 66° East 422 486 28,600 -1,721 Descending Boston Center
10:59AM 40.4408 -73.6972 65° Northeast 408 470 27,000 -787 Descending Boston Center
11:00AM 40.4953 -73.5461 65° Northeast 405 466 27,000  Level Boston Center
11:01AM 40.5431 -73.4119 65° Northeast 405 466 27,000 -50 Level Boston Center
11:02AM 40.5906 -73.2778 65° Northeast 405 466 26,900 -537 Descending Boston Center
11:03AM 40.6367 -73.1417 66° East 406 467 25,900 -968 Descending Boston Center
11:04AM 40.6833 -73.0092 65° Northeast 404 465 24,900 -934 Descending Boston Center
11:05AM 40.7283 -72.8764 66° East 401 461 24,000 -919 Descending Boston Center
11:06AM 40.7808 -72.7233 66° East 398 458 23,000 -1,463 Descending Boston Center
11:07AM 40.8247 -72.5911 66° East 397 457 21,000 -1,884 Descending Boston Center
11:09AM 40.8697 -72.4656 65° Northeast 382 440 19,200 -1,794 Descending Boston Center
11:09AM 40.8953 -72.3908 66° East 373 429 18,100 -1,475 Descending Boston Center
11:10AM 40.9103 -72.3422 68° East 374 430 17,700 -1,636 Descending Boston Center
11:10AM 40.9317 -72.2819 65° Northeast 362 417 16,600 -2,100 Descending Boston Center
11:11AM 40.9514 -72.2219 66° East 365 420 15,600 -1,787 Descending Boston Center
11:12AM 40.9911 -72.1028 66° East 358 412 13,800 -1,946 Descending Boston Center
11:12AM 41.0056 -72.0692 60° Northeast 350 403 13,200 -1,770 Descending Boston Center
11:13AM 41.0306 -71.9881 68° East 349 402 12,000 -1,727 Descending Boston Center
11:13AM 41.0475 -71.9419 64° Northeast 343 395 11,300 -1,180 Descending Boston Center
11:14AM 41.0847 -71.8667 57° Northeast 337 388 10,800 -787 Descending Boston Center
11:14AM 41.0981 -71.8461 49° Northeast 324 373 10,500 -1,048 Descending Boston Center
11:15AM 41.1444 -71.7725 50° Northeast 313 360 9,700 -952 Descending Boston Center
11:15AM 41.1561 -71.7558 47° Northeast 305 351 9,500 -1,000 Descending Boston Center
11:16AM 41.1978 -71.6881 51° Northeast 301 346 8,700 -984 Descending Boston Center
11:16AM 41.2083 -71.6719 49° Northeast 295 339 8,500 -984 Descending Boston Center
11:17AM 41.2497 -71.6067 50° Northeast 296 341 7,700 -1,000 Descending Boston Center
11:17AM 41.2633 -71.5947 33° Northeast 285 328 7,500 -1,082 Descending Boston Center
11:18AM 41.3267 -71.5558 25° Northeast 293 337 6,600 -984 Descending Boston Center
11:18AM 41.3375 -71.5500 22° Northeast 285 328 6,500 -952 Descending Boston Center
11:19AM 41.3978 -71.5089 27° Northeast 289 333 5,600 -1,075 Descending Boston Center
11:19AM 41.4203 -71.4942 26° Northeast 284 327 5,300 -590 Descending Boston Center
11:20AM 41.4669 -71.4639 26° Northeast 279 321 5,000 -333 Descending Boston Center
11:20AM 41.4819 -71.4564 21° North 274 315 5,000  Level Boston Center
11:21AM 41.5356 -71.4211 26° Northeast 254 292 5,000  Level Boston Center
11:21AM 41.5444 -71.4158 24° Northeast 242 278 5,000  Level Boston Center
11:22AM 41.5967 -71.3811 26° Northeast 250 288 5,000  Level Boston Center
11:23AM 41.6581 -71.3411 26° Northeast 248 285 5,000 -244 Level Boston Center
11:24AM 41.7144 -71.3011 28° Northeast 219 252 4,500 -493 Descending Boston Center
11:24AM 41.7203 -71.2953 37° Northeast 216 249 4,400 -1,082 Descending Boston Center
11:25AM 41.7667 -71.2664 25° Northeast 216 249 3,400 -1,071 Descending Boston Center
11:26AM 41.8075 -71.3103 321° Northwest 193 222 2,400 -934 Descending Boston Center
11:27AM 41.7950 -71.3672 254° West 148 170 1,500 -811 Descending Boston Center
11:27AM 41.7883 -71.3747 220° Southwest 138 159 1,400 -590 Descending Boston Center
11:28AM 41.7661 -71.3922 210° Southwest 128 147 900 -667 Descending Boston Center
11:28AM 41.7575 -71.3983 208° Southwest 121 139 700 -750 Descending Boston Center
11:29AM 41.7322 -71.4200 213° Southwest 128 147 100 -735 Descending Boston Center

Login

Don't have an account? Register now (free) for customized features, flight alerts, and more!